0,00 -
Pkt Einheit
Index Typ
0,00% %
0,00 abs
ISIN: US78378X1072 WKN: A0AET0 Börse: Commerzbank CFD Datum: -

S&P 500 Index

Name Kurs +/- abs. +/- % Zeit 1 Woche % 1 Monat % 3 Monate % 6 Monate % 1 Jahr % 10 Jahre %
21st Century Fox Inc. 50,170 0,150 0,30 19.02.19 1,89 3,72 3,34 11,91 35,45 651,05
21st Century Fox Inc. 50,530 0,130 0,26 19.02.19 2,00 3,67 3,31 11,35 34,89 739,37
3M Co. 208,410 -0,450 -0,22 19.02.19 0,89 6,41 1,38 1,78 -11,94 342,77
Abbott Laboratories 75,000 -0,250 -0,33 19.02.19 -0,08 5,01 6,32 15,88 24,65 194,96
AbbVie Inc. 80,520 -0,330 -0,41 19.02.19 0,74 -10,03 -10,01 -18,51 -32,10
Abiomed Inc. 359,400 -2,660 -0,73 19.02.19 0,37 7,69 19,82 0,16 34,23 4.415,08
Accenture PLC 159,480 0,250 0,16 19.02.19 1,82 6,00 -2,02 -3,28 -1,96 417,62
Activision Blizzard Inc. 44,480 -0,120 -0,27 19.02.19 10,87 -8,55 -9,48 -35,68 -36,63 374,20
Adobe Inc. 257,810 -1,640 -0,63 19.02.19 -1,36 4,16 17,35 4,93 27,91 1.219,40
Advance Auto Parts Inc. 167,140 -2,850 -1,68 19.02.19 -0,45 -0,28 -5,97 4,65 55,38 351,73
Advanced Micro Devices Inc. 23,950 0,270 1,14 19.02.19 4,95 15,31 25,26 21,14 102,62 1.029,72
AES Corp., The 17,180 0,260 1,54 19.02.19 10,48 11,70 23,24 64,40 135,34
Affiliated Managers Group Inc. 109,000 0,040 0,04 19.02.19 2,67 0,40 -1,00 -25,64 -43,17 177,35
AFLAC Inc. 48,990 -0,290 -0,59 19.02.19 0,10 2,70 7,98 4,77 9,29 500,37
Agilent Technologies Inc. 77,520 -0,780 -1,00 19.02.19 0,58 7,77 23,81 19,89 7,71 592,04
Air Products & Chemicals Inc. 175,110 1,030 0,59 19.02.19 2,21 10,40 9,52 5,10 7,02 230,08
Akamai Technologies Inc. 70,470 0,380 0,54 19.02.19 1,64 7,11 3,18 -1,36 5,35 301,31
Alaska Air Group Inc. 64,560 -1,760 -2,65 19.02.19 -3,19 -0,46 -4,07 -0,68 -0,63
Albemarle Corp. 83,130 1,760 2,16 19.02.19 3,33 8,48 -16,54 -12,90 -25,94 301,79
Alexandria Real Est. Equ. Inc. 135,690 0,830 0,62 19.02.19 2,36 9,20 11,14 4,57 10,62
Alexion Pharmaceuticals Inc. 128,930 -0,490 -0,38 19.02.19 3,76 10,15 12,04 11,15 7,02 571,16
Align Technology Inc. 255,240 0,280 0,11 19.02.19 0,36 15,95 24,87 -28,57 1,51 3.118,66
Allegion PLC 88,020 -3,540 -3,87 19.02.19 -5,40 5,40 -1,59 1,52 6,41
Allergan PLC 137,960 -1,110 -0,80 19.02.19 -0,61 -13,89 -11,59 -25,67 -15,90 239,39
Alliance Data Systems Corp. 174,830 1,620 0,94 19.02.19 3,43 1,34 -9,41 -26,55 -28,55 494,05
Alliant Energy Corp. 45,150 0,170 0,38 19.02.19 0,44 5,12
Allstate Corp., The 94,620 0,240 0,25 19.02.19 1,84 10,41 6,98 -5,40 -0,44 423,34
Alphabet Inc. (Class A) 1.126,540 6,910 0,62 19.02.19 -0,06 1,74 9,65 -7,35 2,83 557,56
Alphabet Inc. (Class C) 1.118,560 4,910 0,44 19.02.19 -0,26 1,85 9,67 -6,86 2,17
Altria Group Inc. 48,990 0,250 0,51 19.02.19 -1,35 1,41 -12,02 -19,69 -25,16 212,04
Amazon.com Inc. 1.627,580 19,630 1,22 19.02.19 -0,64 -4,05 7,62 -13,53 12,35 2.527,25
Ameren Corp. 70,090 0,410 0,59 19.02.19 -0,14 4,24 0,52 8,23 24,45 163,30
American Airlines Group Inc. 35,470 0,420 1,20 19.02.19 -0,78 4,42 -0,98 -6,11 -31,25 299,44
American Electric Power Co.Inc 80,080 0,810 1,02 19.02.19 -0,27 5,24 3,42 10,46 19,06 165,96
American Express Co. 106,500 -0,880 -0,82 19.02.19 -0,47 5,99 -1,62 3,37 10,03 727,51
American International Grp Inc 43,000 0,680 1,61 19.02.19 -1,89 -2,63 -0,69 -18,22 -27,69 264,41
American Tower Corp. 177,600 -0,220 -0,12 19.02.19 2,90 7,85 6,84 17,48 26,84 576,57
American Water Works Co. Inc. 98,700 0,650 0,66 19.02.19 1,05 6,58 5,57 10,29 22,61 375,66
Ameriprise Financial Inc. 131,960 1,280 0,98 19.02.19 2,43 8,96 4,76 -5,38 -17,43 672,15
AmerisourceBergen Corp. 86,850 0,190 0,22 19.02.19 1,24 8,75 -4,37 -0,99 -12,63 388,61
AMETEK Inc. 79,040 0,030 0,04 19.02.19 2,20 9,23 8,87 3,58 3,25 501,77
Amgen Inc. 186,970 -1,370 -0,73 19.02.19 -0,77 -8,29 -4,08 -5,29 1,86 227,56
Amphenol Corp. 92,470 -0,220 -0,24 19.02.19 0,97 12,10 7,32 -1,68 2,76 634,47
Anadarko Petroleum Corp. 45,450 0,220 0,49 19.02.19 6,19 -6,62 -18,27 -26,75 -23,20 26,11
Analog Devices Inc. 104,230 -1,510 -1,43 19.02.19 0,16 14,10 21,78 10,20 21,07 437,27
Ansys Inc. 174,460 -0,030 -0,02 19.02.19 -0,31 7,88 16,52 1,28 6,28 626,92
Anthem Inc. 311,600 0,020 0,01 19.02.19 1,68 17,09 10,58 18,05 32,58 655,21
AON PLC 172,660 0,690 0,40 19.02.19 0,81 11,82 4,28 20,36 22,58 340,46
Apache Corp. 33,310 0,010 0,03 19.02.19 7,18 3,80 -8,81 -20,69 -12,60 -50,04
Apartment Inv. & Managem. Co. 49,860 0,250 0,50 19.02.19 1,98 6,11 8,46 13,55 25,62 875,73
Apple Inc. 170,930 0,510 0,30 19.02.19 0,02 9,00 -8,03 -21,44 -0,87 1.219,67
Applied Materials Inc. 39,300 0,200 0,51 19.02.19 -3,42 10,05 14,18 -10,21 -28,58 371,22
Aptiv PLC 81,300 0,350 0,43 19.02.19 5,37 11,48 12,54 -12,35 -12,01
Archer Daniels Midland Co. 41,850 -0,130 -0,31 19.02.19 -1,16 -5,45 -9,63 -17,21 -2,97 50,32
Arconic Inc. 18,060 0,510 2,91 19.02.19 0,78 -11,21 -11,21 -13,51 -28,79
Arista Networks Inc. 269,580 5,630 2,13 19.02.19 13,06 16,16 20,89 0,20 8,05
Assurant Inc. 98,240 0,030 0,03 19.02.19 -0,51 1,93 -1,14 -6,68 9,25 345,13
AT & T Inc. 30,630 0,160 0,53 19.02.19 2,75 -1,07 0,92 -7,27 -17,53 32,08
Atmos Energy Corp. 97,300 0,250 0,26 19.02.19 1,51 1,96 -2,05 3,14 17,29
Autodesk Inc. 160,680 0,330 0,21 19.02.19 0,71 13,37 27,78 21,41 42,26 913,75
Automatic Data Processing Inc. 150,310 0,640 0,43 19.02.19 0,54 11,19 4,79 5,45 29,38 399,69
AutoZone Inc. 916,680 -3,070 -0,33 19.02.19 2,89 8,57 10,53 19,77 28,38 542,92
Avalonbay Communities Inc. 196,450 0,380 0,19 19.02.19 1,55 6,71 4,63 7,23 20,84 376,13
Avery Dennison Corp. 104,980 0,080 0,08 19.02.19 0,86 8,71 13,57 -1,84 -11,63 393,56
Baker Hughes a GE Co. 26,090 0,260 1,01 19.02.19 5,46 8,17 13,43 -15,87 -1,66
Ball Corp. 54,060 -0,070 -0,13 19.02.19 -1,53 7,56 9,19 32,96 36,45 444,55
Bank of America Corp. 29,130 0,020 0,07 19.02.19 1,53 -0,58 4,97 -5,24 -8,88 641,22
Baxter International Inc. 73,470 0,040 0,05 19.02.19 1,37 4,02 13,00 1,99 10,76 134,62
BB&T Corp. 51,110 0,410 0,81 19.02.19 0,57 3,69 -1,03 -2,50 -7,01 263,51
Becton, Dickinson & Co. 248,040 -0,300 -0,12 19.02.19 0,72 2,46 1,91 -2,01 11,29 255,46
Berkshire Hathaway Inc. 205,690 0,400 0,19 19.02.19 -0,22 0,59 -5,62 -1,18 0,93 308,68
Best Buy Co. Inc. 60,340 0,160 0,27 19.02.19 0,80 2,78 -2,99 -23,11 -17,55 116,35
Biogen Inc. 333,000 0,130 0,04 19.02.19 4,25 -1,31 4,32 -3,54 14,09 556,03
Bk of New York MellonCorp.,The 52,990 0,000 0,00 19.02.19 0,28 0,63 5,73 2,51 -5,80 127,04
Blackrock Inc. 431,070 -0,880 -0,20 19.02.19 1,31 2,77 5,71 -9,09 -20,33 318,76
Block H. & R. Inc. 24,210 0,110 0,46 19.02.19 0,58 -5,54 -13,41 -8,36 -13,66 19,91
Boeing Co. 416,260 -1,710 -0,41 19.02.19 1,35 14,13 29,70 20,17 17,24 1.007,96
Booking Holdings Inc. 1.935,790 2,220 0,11 19.02.19 2,14 10,01 8,75 5,17 2,69 2.314,91
BorgWarner Inc. 41,790 -0,130 -0,31 19.02.19 4,11 2,88 6,04 -7,71 -19,97 353,75
Boston Properties Inc. 134,610 0,990 0,74 19.02.19 1,45 10,77 7,15 1,86 12,51 264,99
Boston Scientific Corp. 39,860 -0,150 -0,37 19.02.19 -0,45 5,76 12,95 15,84 46,54 358,69
Brighthouse Financial Inc. 42,770 0,820 1,95 19.02.19 5,14 17,40 8,01 3,11 -24,73
Bristol-Myers Squibb Co. 51,360 -0,310 -0,60 19.02.19 3,32 2,47 -3,96 -15,65 -25,52 150,41
Broadcom Inc. 281,660 -0,270 -0,10 19.02.19 0,81 7,99 22,93 34,59 13,17 1.593,69
Broadridge Financial Solutions 99,830 -0,520 -0,52 19.02.19 0,45 -1,46 -1,31 -25,07 1,06
Brown-Forman Corp. Class B 48,360 -0,570 -1,16 19.02.19 0,04 5,34 1,85 -9,73 -30,50 236,83
C.H. Robinson Worldwide Inc. 91,950 0,500 0,55 19.02.19 1,03 3,70 1,52 -5,34 -0,73 104,61
Cabot Oil & Gas Corp. 25,180 -0,050 -0,20 19.02.19 1,90 -1,72 -2,40 6,69 5,40 353,49
Cadence Design Systems Inc. 52,650 0,070 0,13 19.02.19 1,00 12,96 23,07 16,53 34,45 1.236,29
Campbell Soup Co. 35,010 0,220 0,63 19.02.19 1,30 -1,35 -8,95 -16,72 -24,17 18,44
Capital One Financial Corp. 82,200 0,630 0,77 19.02.19 3,02 -3,27 -6,30 -17,11 -17,41 809,29
Capri Holdings Ltd. 44,030 -0,460 -1,03 19.02.19 -3,21 3,80 -1,28 -39,67 -31,10
Cardinal Health Inc. 56,790 1,310 2,36 19.02.19 4,14 15,78 4,07 9,42 -18,10 57,10
Carmax Inc. 61,990 -0,070 -0,11 19.02.19 1,87 0,11 -0,35 -15,81 -3,79 618,31
Carnival Corp. 58,300 1,050 1,83 19.02.19 3,06 6,23 -1,27 -3,76 -16,12 200,67
Caterpillar Inc. 135,800 -0,400 -0,29 19.02.19 2,36 -0,59 7,79 -2,54 -13,12 402,59
Cboe Global Markets Inc. 94,160 0,620 0,66 19.02.19 0,17 -0,98
CBRE Group Inc. 50,130 0,080 0,16 19.02.19 4,81 12,53 14,95 5,45 10,91 1.437,73
CBS Corp. Class B 50,570 -0,070 -0,14 19.02.19 4,53 2,70 -8,00 -4,98 -8,70 917,51
Celanese Corp. (Del.) 100,950 0,690 0,69 19.02.19 1,68 3,21 -0,73 -12,74 -1,50
Zum Index